Airfield :
LOGIN :

Register | Disclaimer

   EN    FR    IT 

 










Legend :    VFR   Marginal VFR   IFR   Intensive IFR   Very Intensive IFR
Visi :
Ceiling :
>= 8 km
>= 3000ft
5 to 8 km
1000 to 3000 ft
1500m to 5 km
500 to 1000 ft
800 to 1500m
200 to 500 ft
< 800m
< 200 ft
Symbols :   Thunderstorms  Fog  Heavy snow  Heavy precipitations  Wind > 20 kt
SIGMETs :     Misc.  Thunderstorms  Icing  Turbulence  Mountain Waves  Volcanic Ashes






- Airport Elevation : 265 ft


LFMC - Le Luc

CURRENT METAR :
  • 280030Z AUTO 22007KT 190V250 9999 ////// 23/13 Q1011

EXPIRED METARs :
  • 280000Z AUTO 22006KT 9999 ////// 23/13 Q1011
  • 272330Z AUTO 21005KT 170V240 9999 ////// 24/12 Q1012
  • 272300Z AUTO 26009KT 220V280 9999 ////// 26/12 Q1012
  • 272230Z AUTO 25009KT 220V290 9999 ////// 26/12 Q1012
  • 272200Z AUTO 23006KT 180V280 9999 ////// 26/12 Q1012
  • 272130Z AUTO 22006KT 190V260 9999 ////// 26/12 Q1013

TAF N/A



MET'MAP, your aeronautical weather chart ! - Copyright ORBIFLY December 2007 - Disclaimer

ORBIFLY MET'MAP TEAM :

Programming & Development : Alexandra Zaïnal
Original concept : Baudouin d'Aumeries
Technical & hardware support : Manuel Goepfert
Assistance : Marc-Olivier Méhu

Contact : metmap@orbifly.com




SOURCES & CREDITS :

   NOAA